Time;durP1;ratioP1;P1;durP2;ratioP2;P2;SDS_P1;SDS_P2;PMS_P1;PMS_P2;Temp;Humidity;BMP_temperature;BMP_pressure;BME280_temperature;BME280_humidity;BME280_pressure;Samples;Min_cycle;Max_cycle;Signal;HPM_P1;HPM_P2
2021/01/24 00:01:11;;;;;;;33.85;11.10;;;;;;;;;;4978465;28;20436;-64
2021/01/24 00:03:37;;;;;;;28.73;11.75;;;;;;;;;;4983380;28;20033;-65
2021/01/24 00:06:05;;;;;;;28.98;12.73;;;;;;;;;;4978918;28;20766;-63
2021/01/24 00:08:33;;;;;;;24.98;11.25;;;;;;;;;;4980182;28;20485;-64
2021/01/24 00:10:59;;;;;;;32.17;12.57;;;;;;;;;;4980108;28;20104;-65
2021/01/24 00:13:27;;;;;;;29.65;12.60;;;;;;;;;;4982884;28;20172;-64
2021/01/24 00:15:53;;;;;;;24.75;11.07;;;;;;;;;;4961556;28;20551;-65
2021/01/24 00:18:21;;;;;;;29.20;12.23;;;;;;;;;;4977516;28;20034;-67
2021/01/24 00:20:49;;;;;;;27.30;11.73;;;;;;;;;;4982975;28;20037;-63
2021/01/24 00:23:19;;;;;;;27.67;12.23;;;;;;;;;;4975439;28;20077;-64
2021/01/24 00:25:45;;;;;;;24.27;10.90;;;;;;;;;;4982074;28;20060;-65
2021/01/24 00:28:19;;;;;;;26.23;12.02;;;;;;;;;;4981600;28;20370;-63
2021/01/24 00:30:47;;;;;;;29.77;11.65;;;;;;;;;;4965284;28;20029;-63
2021/01/24 00:33:12;;;;;;;26.27;11.90;;;;;;;;;;4979910;28;20037;-65
2021/01/24 00:35:40;;;;;;;24.55;13.02;;;;;;;;;;4980838;28;20397;-65
2021/01/24 00:38:08;;;;;;;27.02;11.63;;;;;;;;;;4980717;28;20108;-64
2021/01/24 00:40:35;;;;;;;26.90;12.13;;;;;;;;;;4943359;28;20515;-64
2021/01/24 00:43:04;;;;;;;31.15;13.40;;;;;;;;;;4978044;28;20026;-64
2021/01/24 00:45:34;;;;;;;28.13;12.68;;;;;;;;;;4979016;28;20033;-65
2021/01/24 00:48:00;;;;;;;29.52;12.38;;;;;;;;;;4978493;28;20517;-66
2021/01/24 00:50:26;;;;;;;34.80;13.93;;;;;;;;;;4980050;28;20041;-64
2021/01/24 00:52:55;;;;;;;25.65;11.63;;;;;;;;;;4981183;28;20022;-63
2021/01/24 00:55:20;;;;;;;39.47;13.65;;;;;;;;;;4984720;28;20115;-65
2021/01/24 00:57:48;;;;;;;31.73;12.43;;;;;;;;;;4981277;28;20694;-65
2021/01/24 01:00:16;;;;;;;26.23;12.10;;;;;;;;;;4983268;28;20313;-64
2021/01/24 01:02:41;;;;;;;29.15;12.45;;;;;;;;;;4985475;28;20025;-64
2021/01/24 01:05:11;;;;;;;24.27;11.43;;;;;;;;;;4968156;28;20026;-64
2021/01/24 01:07:41;;;;;;;27.10;11.77;;;;;;;;;;4983031;28;20143;-64
2021/01/24 01:10:07;;;;;;;24.42;10.85;;;;;;;;;;4982334;28;20048;-64
2021/01/24 01:12:35;;;;;;;32.42;12.30;;;;;;;;;;4980456;28;20552;-64
2021/01/24 01:15:22;;;;;;;27.98;11.45;;;;;;;;;;4985441;28;20193;-66
2021/01/24 01:17:48;;;;;;;26.95;11.52;;;;;;;;;;4964348;28;20083;-65
2021/01/24 01:20:20;;;;;;;35.35;13.77;;;;;;;;;;4984888;28;20084;-63
2021/01/24 01:22:51;;;;;;;32.08;13.32;;;;;;;;;;4982418;28;20502;-65
2021/01/24 01:25:17;;;;;;;24.65;10.82;;;;;;;;;;4981711;28;20041;-64
2021/01/24 01:27:42;;;;;;;28.40;12.75;;;;;;;;;;4983231;28;21714;-64
2021/01/24 01:30:08;;;;;;;29.20;9.85;;;;;;;;;;4979993;28;20032;-64
2021/01/24 01:32:34;;;;;;;26.10;10.40;;;;;;;;;;4985609;28;20749;-65
2021/01/24 01:35:00;;;;;;;26.13;11.15;;;;;;;;;;4967590;28;20494;-65
2021/01/24 01:37:30;;;;;;;22.52;9.98;;;;;;;;;;4979613;28;20025;-65
2021/01/24 01:39:58;;;;;;;24.05;10.82;;;;;;;;;;4984466;28;20029;-67
2021/01/24 01:42:28;;;;;;;29.52;11.63;;;;;;;;;;4980260;28;20523;-65
2021/01/24 01:44:54;;;;;;;28.55;11.73;;;;;;;;;;4965400;28;20041;-65
2021/01/24 01:47:23;;;;;;;26.20;11.38;;;;;;;;;;4981943;28;20642;-65
2021/01/24 01:49:50;;;;;;;24.35;11.05;;;;;;;;;;4985051;28;20021;-65
2021/01/24 01:55:52;;;;;;;24.77;11.70;;;;;;;;;;4985181;28;21284;-66
2021/01/24 01:58:18;;;;;;;25.08;11.60;;;;;;;;;;4984669;28;20029;-65
2021/01/24 02:00:43;;;;;;;26.05;9.63;;;;;;;;;;4961418;28;20056;-65
2021/01/24 02:03:15;;;;;;;20.52;10.52;;;;;;;;;;4983855;28;20528;-66
2021/01/24 02:06:06;;;;;;;24.40;9.85;;;;;;;;;;4981331;28;20030;-65
2021/01/24 02:08:37;;;;;;;20.85;9.93;;;;;;;;;;4960164;28;21684;-65
2021/01/24 02:11:13;;;;;;;26.80;9.85;;;;;;;;;;4971644;28;20772;-65
2021/01/24 02:14:00;;;;;;;26.38;10.82;;;;;;;;;;4965987;28;20477;-66
2021/01/24 02:16:27;;;;;;;22.52;10.25;;;;;;;;;;4967759;28;20662;-65
2021/01/24 02:18:53;;;;;;;38.85;12.68;;;;;;;;;;4984288;28;20405;-66
2021/01/24 02:21:32;;;;;;;31.20;14.30;;;;;;;;;;4983189;28;20029;-65
2021/01/24 02:24:15;;;;;;;26.77;13.57;;;;;;;;;;4986888;28;20504;-65
2021/01/24 02:26:52;;;;;;;33.05;13.50;;;;;;;;;;4977039;28;20770;-65
2021/01/24 02:29:38;;;;;;;29.30;12.80;;;;;;;;;;4967225;28;20030;-65
2021/01/24 02:32:07;;;;;;;32.55;13.50;;;;;;;;;;4982040;28;20065;-65
2021/01/24 02:34:39;;;;;;;35.72;13.15;;;;;;;;;;4984020;28;20026;-65
2021/01/24 02:37:10;;;;;;;31.90;13.02;;;;;;;;;;4980476;28;20033;-66
2021/01/24 02:39:42;;;;;;;26.98;12.52;;;;;;;;;;4984506;28;20046;-65
2021/01/24 02:42:10;;;;;;;25.83;11.60;;;;;;;;;;4984209;28;20029;-65
2021/01/24 02:44:38;;;;;;;26.45;10.90;;;;;;;;;;4984338;28;20038;-66
2021/01/24 02:47:03;;;;;;;24.38;11.90;;;;;;;;;;4976877;28;20159;-65
2021/01/24 02:49:30;;;;;;;31.75;11.65;;;;;;;;;;4982285;28;20561;-65
2021/01/24 02:51:56;;;;;;;25.80;12.02;;;;;;;;;;4982634;28;20034;-65
2021/01/24 02:54:24;;;;;;;29.10;10.73;;;;;;;;;;4985472;28;20081;-66
2021/01/24 02:56:54;;;;;;;24.60;10.82;;;;;;;;;;4982378;28;20041;-65
2021/01/24 02:59:21;;;;;;;28.75;11.93;;;;;;;;;;4985690;28;20038;-65
2021/01/24 03:01:48;;;;;;;28.83;10.63;;;;;;;;;;4983784;28;20260;-66
2021/01/24 03:04:17;;;;;;;31.65;11.27;;;;;;;;;;4981906;28;20045;-65
2021/01/24 03:06:43;;;;;;;24.63;11.85;;;;;;;;;;4984036;28;20100;-66
2021/01/24 03:09:08;;;;;;;23.80;10.70;;;;;;;;;;4969447;28;20044;-65
2021/01/24 03:11:37;;;;;;;27.33;11.07;;;;;;;;;;4965680;28;20104;-65
2021/01/24 03:14:12;;;;;;;27.48;10.65;;;;;;;;;;4980235;28;20033;-66
2021/01/24 03:16:38;;;;;;;24.45;9.73;;;;;;;;;;4981460;28;20037;-66
2021/01/24 03:19:07;;;;;;;26.77;11.52;;;;;;;;;;4975639;28;20123;-66
2021/01/24 03:21:35;;;;;;;23.48;10.98;;;;;;;;;;4983549;28;20221;-66
2021/01/24 03:24:03;;;;;;;29.02;11.55;;;;;;;;;;4982943;28;20077;-66
2021/01/24 03:26:33;;;;;;;30.95;12.93;;;;;;;;;;4981664;28;20050;-66
2021/01/24 03:29:00;;;;;;;24.10;10.57;;;;;;;;;;4982736;28;20112;-66
2021/01/24 03:31:59;;;;;;;34.13;11.93;;;;;;;;;;4969240;28;20087;-66
2021/01/24 03:34:25;;;;;;;23.77;10.60;;;;;;;;;;4979642;28;20072;-66
2021/01/24 03:36:51;;;;;;;24.63;11.13;;;;;;;;;;4977429;28;20453;-66
2021/01/24 03:39:17;;;;;;;26.10;12.32;;;;;;;;;;4960885;28;20412;-66
2021/01/24 03:41:43;;;;;;;22.10;9.98;;;;;;;;;;4979543;28;20022;-68
2021/01/24 03:44:11;;;;;;;30.38;11.35;;;;;;;;;;4987361;28;20188;-66
2021/01/24 03:46:39;;;;;;;22.02;9.98;;;;;;;;;;4981467;28;20362;-65
2021/01/24 03:49:07;;;;;;;27.40;10.45;;;;;;;;;;4984309;28;20111;-67
2021/01/24 03:51:33;;;;;;;25.00;11.60;;;;;;;;;;4984564;28;20029;-66
2021/01/24 03:54:04;;;;;;;22.02;10.43;;;;;;;;;;4983413;28;20042;-67
2021/01/24 03:56:32;;;;;;;24.92;11.27;;;;;;;;;;4964165;28;20053;-68
2021/01/24 03:59:00;;;;;;;26.60;10.23;;;;;;;;;;4981118;28;20030;-67
2021/01/24 04:01:28;;;;;;;24.38;10.13;;;;;;;;;;4965116;28;20028;-66
2021/01/24 04:03:56;;;;;;;26.67;10.80;;;;;;;;;;4984063;28;20038;-66
2021/01/24 04:06:21;;;;;;;25.50;10.25;;;;;;;;;;4964681;28;20394;-66
2021/01/24 04:08:49;;;;;;;26.02;10.50;;;;;;;;;;4958570;28;20080;-66
2021/01/24 04:11:15;;;;;;;26.15;9.55;;;;;;;;;;4984349;28;20151;-66
2021/01/24 04:13:43;;;;;;;23.25;10.02;;;;;;;;;;4965278;28;20038;-67
2021/01/24 04:16:10;;;;;;;21.27;9.85;;;;;;;;;;4981118;28;20115;-66
2021/01/24 04:18:36;;;;;;;22.60;10.23;;;;;;;;;;4981873;28;20832;-66
2021/01/24 04:21:01;;;;;;;23.10;9.95;;;;;;;;;;4982801;28;20057;-66
2021/01/24 04:23:29;;;;;;;21.42;9.77;;;;;;;;;;4959261;28;20162;-66
2021/01/24 04:25:59;;;;;;;27.55;9.73;;;;;;;;;;4941614;28;20068;-67
2021/01/24 04:28:25;;;;;;;28.25;11.18;;;;;;;;;;4980137;28;20022;-67
2021/01/24 04:30:50;;;;;;;28.25;10.98;;;;;;;;;;4962725;28;20446;-66
2021/01/24 04:33:18;;;;;;;23.10;10.50;;;;;;;;;;4982691;28;20820;-66
2021/01/24 04:35:44;;;;;;;26.65;10.55;;;;;;;;;;4970789;28;20460;-66
2021/01/24 04:38:12;;;;;;;22.90;10.63;;;;;;;;;;4976373;28;20944;-68
2021/01/24 04:40:42;;;;;;;24.92;10.57;;;;;;;;;;4981882;28;20391;-66
2021/01/24 04:43:13;;;;;;;24.73;10.05;;;;;;;;;;4963384;28;20436;-67
2021/01/24 04:45:41;;;;;;;24.20;11.15;;;;;;;;;;4982803;28;20044;-66
2021/01/24 04:48:09;;;;;;;26.45;10.55;;;;;;;;;;4982188;28;20120;-67
2021/01/24 04:50:36;;;;;;;18.45;9.75;;;;;;;;;;4961972;28;20034;-66
2021/01/24 04:53:01;;;;;;;22.23;9.23;;;;;;;;;;4982227;28;20537;-67
2021/01/24 04:58:32;;;;;;;;;;;;;;;;;;4981077;28;20085;-65
2021/01/24 05:01:01;;;;;;;23.80;8.75;;;;;;;;;;4961463;28;19932;-67
2021/01/24 05:03:26;;;;;;;23.95;10.90;;;;;;;;;;4979539;28;20508;-66
2021/01/24 05:05:54;;;;;;;23.00;9.77;;;;;;;;;;4982275;28;20089;-67
2021/01/24 05:08:22;;;;;;;19.65;9.50;;;;;;;;;;4963506;28;20038;-66
2021/01/24 05:10:54;;;;;;;22.73;9.85;;;;;;;;;;4983443;28;20116;-65
2021/01/24 05:13:27;;;;;;;23.63;10.10;;;;;;;;;;4965104;28;20034;-67
2021/01/24 05:15:59;;;;;;;33.70;10.73;;;;;;;;;;4982516;28;20148;-66
2021/01/24 05:18:27;;;;;;;29.75;10.38;;;;;;;;;;4980363;28;22023;-67
2021/01/24 05:20:56;;;;;;;21.60;9.07;;;;;;;;;;4955861;28;20744;-67
2021/01/24 05:23:24;;;;;;;21.60;9.75;;;;;;;;;;4971493;28;21689;-67
2021/01/24 05:25:53;;;;;;;24.83;10.00;;;;;;;;;;4982981;28;20054;-67
2021/01/24 05:28:20;;;;;;;27.17;10.27;;;;;;;;;;4982842;28;20095;-68
2021/01/24 05:30:45;;;;;;;24.02;10.27;;;;;;;;;;4973847;28;20050;-67
2021/01/24 05:33:14;;;;;;;20.90;9.65;;;;;;;;;;4962636;28;20558;-68
2021/01/24 05:35:47;;;;;;;20.10;9.45;;;;;;;;;;4962789;28;20149;-68
2021/01/24 05:38:23;;;;;;;33.22;10.48;;;;;;;;;;4985956;28;20528;-68
2021/01/24 05:40:49;;;;;;;23.05;9.98;;;;;;;;;;4987086;28;20211;-68
2021/01/24 05:43:17;;;;;;;23.00;9.55;;;;;;;;;;4987791;28;20149;-68
2021/01/24 05:45:49;;;;;;;21.10;9.60;;;;;;;;;;4983460;28;20045;-67
2021/01/24 05:48:17;;;;;;;30.38;9.88;;;;;;;;;;4988611;28;20048;-68
2021/01/24 05:50:45;;;;;;;29.10;9.50;;;;;;;;;;4984142;28;20045;-68
2021/01/24 05:53:15;;;;;;;14.98;7.68;;;;;;;;;;4984225;28;20138;-68
2021/01/24 05:55:43;;;;;;;25.08;9.57;;;;;;;;;;4986978;28;20169;-68
2021/01/24 05:58:14;;;;;;;19.00;9.38;;;;;;;;;;4966172;28;20017;-68
2021/01/24 06:00:42;;;;;;;20.05;9.43;;;;;;;;;;4986699;28;20165;-67
2021/01/24 06:03:11;;;;;;;22.08;9.90;;;;;;;;;;4986726;28;20037;-68
2021/01/24 06:05:37;;;;;;;18.85;8.55;;;;;;;;;;4984740;28;20116;-68
2021/01/24 06:08:03;;;;;;;21.33;9.65;;;;;;;;;;4985169;28;20232;-68
2021/01/24 06:14:07;;;;;;;18.23;8.77;;;;;;;;;;4984763;28;20045;-67
2021/01/24 06:16:39;;;;;;;19.88;8.30;;;;;;;;;;4966253;28;20026;-68
2021/01/24 06:19:08;;;;;;;18.58;7.88;;;;;;;;;;4985113;28;20037;-68
2021/01/24 06:21:40;;;;;;;21.65;8.10;;;;;;;;;;4966474;28;20446;-68
2021/01/24 06:24:10;;;;;;;17.58;8.10;;;;;;;;;;4986549;28;20324;-67
2021/01/24 06:26:37;;;;;;;20.50;9.05;;;;;;;;;;4979416;28;20061;-69
2021/01/24 06:29:04;;;;;;;23.90;8.48;;;;;;;;;;4982402;28;20069;-68
2021/01/24 06:31:29;;;;;;;19.33;8.40;;;;;;;;;;4980945;28;20116;-66
2021/01/24 06:34:05;;;;;;;17.52;7.70;;;;;;;;;;4965897;28;20048;-70
2021/01/24 06:36:35;;;;;;;23.23;7.68;;;;;;;;;;4983540;28;21614;-68
2021/01/24 06:42:44;;;;;;;15.90;6.30;;;;;;;;;;4981224;28;20064;-67
2021/01/24 06:45:22;;;;;;;16.45;7.15;;;;;;;;;;4983507;28;20030;-67
2021/01/24 06:47:50;;;;;;;15.18;6.82;;;;;;;;;;4982476;28;20037;-67
2021/01/24 06:50:34;;;;;;;17.80;6.50;;;;;;;;;;4980409;28;20410;-68
2021/01/24 06:53:11;;;;;;;12.70;6.18;;;;;;;;;;4982832;28;20033;-68
2021/01/24 06:55:41;;;;;;;11.02;5.32;;;;;;;;;;4982606;28;20049;-67
2021/01/24 06:58:26;;;;;;;14.63;7.13;;;;;;;;;;4984885;28;20030;-67
2021/01/24 07:01:11;;;;;;;14.65;5.00;;;;;;;;;;4982029;28;20052;-68
2021/01/24 07:03:39;;;;;;;12.52;5.55;;;;;;;;;;4982707;28;20022;-67
2021/01/24 07:06:23;;;;;;;14.60;5.22;;;;;;;;;;4983146;28;20207;-69
2021/01/24 07:08:49;;;;;;;13.90;5.05;;;;;;;;;;4987003;28;20168;-68
2021/01/24 07:11:37;;;;;;;12.75;5.30;;;;;;;;;;4986270;28;20080;-67
2021/01/24 07:14:24;;;;;;;8.80;4.43;;;;;;;;;;4985509;28;20045;-67
2021/01/24 07:16:52;;;;;;;13.25;4.32;;;;;;;;;;4969252;28;20033;-66
2021/01/24 07:19:18;;;;;;;9.48;4.53;;;;;;;;;;4961754;28;20042;-69
2021/01/24 07:21:46;;;;;;;8.32;3.75;;;;;;;;;;4979193;28;20595;-70
2021/01/24 07:24:13;;;;;;;5.45;3.22;;;;;;;;;;4961276;28;20017;-67
2021/01/24 07:26:44;;;;;;;6.95;3.20;;;;;;;;;;4985368;28;20186;-67
2021/01/24 07:29:09;;;;;;;7.22;2.95;;;;;;;;;;4982462;28;20072;-66
2021/01/24 07:31:35;;;;;;;4.93;1.92;;;;;;;;;;4978596;28;20113;-67
2021/01/24 07:34:01;;;;;;;4.45;1.40;;;;;;;;;;4964352;28;20451;-66
2021/01/24 07:36:26;;;;;;;4.20;2.08;;;;;;;;;;4974873;28;20034;-65
2021/01/24 07:38:54;;;;;;;5.20;1.90;;;;;;;;;;4968381;28;20065;-65
2021/01/24 07:41:22;;;;;;;2.20;1.60;;;;;;;;;;4968424;28;20073;-64
2021/01/24 07:43:47;;;;;;;2.72;0.93;;;;;;;;;;4984244;28;20854;-64
2021/01/24 07:46:12;;;;;;;1.77;1.00;;;;;;;;;;4983551;28;20084;-65
2021/01/24 07:48:41;;;;;;;3.83;1.30;;;;;;;;;;4976516;28;21023;-64
2021/01/24 07:51:10;;;;;;;3.25;1.23;;;;;;;;;;4975660;28;20037;-61
2021/01/24 07:53:41;;;;;;;2.03;1.02;;;;;;;;;;4955755;28;20049;-60
2021/01/24 07:56:06;;;;;;;1.95;0.88;;;;;;;;;;4970890;28;20401;-60
2021/01/24 07:58:34;;;;;;;1.15;0.77;;;;;;;;;;4963764;28;20041;-61
2021/01/24 08:01:05;;;;;;;4.07;1.10;;;;;;;;;;4978076;28;20635;-59
2021/01/24 08:03:37;;;;;;;4.78;0.95;;;;;;;;;;4975051;28;20260;-60
2021/01/24 08:06:06;;;;;;;2.30;0.93;;;;;;;;;;4972255;28;20492;-61
2021/01/24 08:08:35;;;;;;;3.75;1.15;;;;;;;;;;4972213;28;20033;-60
2021/01/24 08:11:00;;;;;;;3.95;2.08;;;;;;;;;;4969042;28;20120;-60
2021/01/24 08:13:29;;;;;;;2.08;1.20;;;;;;;;;;4960704;28;20034;-60
2021/01/24 08:15:55;;;;;;;2.67;1.10;;;;;;;;;;4975258;28;20030;-61
2021/01/24 08:18:24;;;;;;;3.22;0.88;;;;;;;;;;4958602;28;20416;-61
2021/01/24 08:20:55;;;;;;;1.52;0.82;;;;;;;;;;4973544;28;20936;-61
2021/01/24 08:23:21;;;;;;;2.03;0.82;;;;;;;;;;4974147;28;20058;-61
2021/01/24 08:25:49;;;;;;;2.85;0.60;;;;;;;;;;4952547;28;20418;-62
2021/01/24 08:28:20;;;;;;;2.83;0.57;;;;;;;;;;4962282;28;20037;-62
2021/01/24 08:30:47;;;;;;;1.30;0.85;;;;;;;;;;4968085;28;20900;-61
2021/01/24 08:33:17;;;;;;;6.40;1.08;;;;;;;;;;4975807;28;20485;-61
2021/01/24 08:35:43;;;;;;;2.63;0.80;;;;;;;;;;4969477;28;20177;-61
2021/01/24 08:38:10;;;;;;;0.88;0.47;;;;;;;;;;4976508;28;20100;-61
2021/01/24 08:40:38;;;;;;;4.78;0.43;;;;;;;;;;4954955;28;20862;-60
2021/01/24 08:43:04;;;;;;;1.02;0.43;;;;;;;;;;4957458;28;20104;-61
2021/01/24 08:45:30;;;;;;;0.85;0.60;;;;;;;;;;4978122;28;20630;-60
2021/01/24 08:47:59;;;;;;;0.30;0.30;;;;;;;;;;4962287;28;20045;-60
2021/01/24 08:50:29;;;;;;;2.25;0.47;;;;;;;;;;4963287;28;20045;-59
2021/01/24 08:53:00;;;;;;;1.27;0.90;;;;;;;;;;4968424;28;20076;-60
2021/01/24 08:55:25;;;;;;;3.00;0.90;;;;;;;;;;4951997;28;20457;-62
2021/01/24 08:57:56;;;;;;;0.82;0.60;;;;;;;;;;4968311;28;20029;-60
2021/01/24 09:00:23;;;;;;;1.90;0.30;;;;;;;;;;4966314;28;28142;-61
2021/01/24 09:02:53;;;;;;;1.20;0.20;;;;;;;;;;4974863;28;20192;-60
2021/01/24 09:05:32;;;;;;;0.75;0.40;;;;;;;;;;4970938;28;20501;-60
2021/01/24 09:07:58;;;;;;;0.60;0.50;;;;;;;;;;4964347;28;20404;-61
2021/01/24 09:10:27;;;;;;;6.35;0.98;;;;;;;;;;4979572;28;20044;-61
2021/01/24 09:12:58;;;;;;;0.52;0.47;;;;;;;;;;4983966;28;20489;-60
2021/01/24 09:15:24;;;;;;;1.38;0.52;;;;;;;;;;4983043;28;20153;-60
2021/01/24 09:17:53;;;;;;;3.92;0.40;;;;;;;;;;4976006;28;20053;-61
2021/01/24 09:20:25;;;;;;;1.33;0.75;;;;;;;;;;4980415;28;21641;-60
2021/01/24 09:22:50;;;;;;;1.60;0.50;;;;;;;;;;4985858;28;20022;-61
2021/01/24 09:25:18;;;;;;;1.20;0.57;;;;;;;;;;4968324;28;20025;-62
2021/01/24 09:27:46;;;;;;;1.50;0.52;;;;;;;;;;4976426;28;20050;-60
2021/01/24 09:30:16;;;;;;;1.92;0.88;;;;;;;;;;4979947;28;20417;-61
2021/01/24 09:32:44;;;;;;;1.20;0.57;;;;;;;;;;4968384;28;20026;-60
2021/01/24 09:35:12;;;;;;;0.85;0.45;;;;;;;;;;4979367;28;20208;-62
2021/01/24 09:37:40;;;;;;;3.80;0.65;;;;;;;;;;4970404;28;20576;-60
2021/01/24 09:40:10;;;;;;;2.05;0.77;;;;;;;;;;4974259;28;20042;-60
2021/01/24 09:42:37;;;;;;;0.80;0.68;;;;;;;;;;4978953;28;20033;-60
2021/01/24 09:45:05;;;;;;;1.25;0.65;;;;;;;;;;4980907;28;20088;-61
2021/01/24 09:47:33;;;;;;;1.17;0.73;;;;;;;;;;4983714;28;20439;-60
2021/01/24 09:49:59;;;;;;;2.28;1.00;;;;;;;;;;4956571;28;20037;-61
2021/01/24 09:52:26;;;;;;;2.75;0.80;;;;;;;;;;4967215;28;20404;-59
2021/01/24 09:54:52;;;;;;;0.80;0.73;;;;;;;;;;4984409;28;20073;-62
2021/01/24 09:57:17;;;;;;;1.85;0.80;;;;;;;;;;4965542;28;20041;-60
2021/01/24 09:59:48;;;;;;;1.67;0.80;;;;;;;;;;4977340;28;20855;-59
2021/01/24 10:02:16;;;;;;;1.20;0.70;;;;;;;;;;4976376;28;20030;-60
2021/01/24 10:04:41;;;;;;;2.90;0.70;;;;;;;;;;4977442;28;20033;-60
2021/01/24 10:07:07;;;;;;;3.42;0.60;;;;;;;;;;4958794;28;20034;-60
2021/01/24 10:09:32;;;;;;;2.22;1.10;;;;;;;;;;4973864;28;20362;-60
2021/01/24 10:12:00;;;;;;;1.02;0.70;;;;;;;;;;4959133;28;20073;-61
2021/01/24 10:14:26;;;;;;;3.13;1.00;;;;;;;;;;4965424;28;20088;-61
2021/01/24 10:16:54;;;;;;;1.88;0.65;;;;;;;;;;4983131;28;20078;-60
2021/01/24 10:19:22;;;;;;;3.80;0.82;;;;;;;;;;4956994;28;20083;-61
2021/01/24 10:21:49;;;;;;;3.80;0.70;;;;;;;;;;4971444;28;20100;-61
2021/01/24 10:24:18;;;;;;;1.67;0.35;;;;;;;;;;4955823;28;20045;-61
2021/01/24 10:26:46;;;;;;;0.55;0.43;;;;;;;;;;4965636;28;20057;-60
2021/01/24 10:29:11;;;;;;;0.32;0.20;;;;;;;;;;4972115;28;20092;-59
2021/01/24 10:31:37;;;;;;;0.05;0.03;;;;;;;;;;4959851;28;20645;-60
2021/01/24 10:34:02;;;;;;;0.20;0.20;;;;;;;;;;4966346;28;20489;-60
2021/01/24 10:36:30;;;;;;;1.10;0.30;;;;;;;;;;4978208;28;20193;-60
2021/01/24 10:38:56;;;;;;;0.68;0.25;;;;;;;;;;4971147;28;20104;-59
2021/01/24 10:41:22;;;;;;;0.50;0.15;;;;;;;;;;4983379;28;20111;-59
2021/01/24 10:43:49;;;;;;;0.70;0.30;;;;;;;;;;4978399;28;20057;-59
2021/01/24 10:46:17;;;;;;;1.08;0.20;;;;;;;;;;4984933;28;20486;-59
2021/01/24 10:48:45;;;;;;;1.40;0.40;;;;;;;;;;4960981;28;20625;-59
2021/01/24 10:51:13;;;;;;;1.65;0.55;;;;;;;;;;4975827;28;20572;-59
2021/01/24 10:53:39;;;;;;;1.75;0.20;;;;;;;;;;4973869;28;20053;-59
2021/01/24 10:56:06;;;;;;;2.65;0.28;;;;;;;;;;4955555;28;20041;-61
2021/01/24 10:58:32;;;;;;;1.83;0.30;;;;;;;;;;4976520;28;21056;-60
2021/01/24 11:01:00;;;;;;;1.10;0.22;;;;;;;;;;4976627;28;20522;-60
2021/01/24 11:03:27;;;;;;;2.50;0.43;;;;;;;;;;4975084;28;20656;-59
2021/01/24 11:05:53;;;;;;;2.60;0.20;;;;;;;;;;4969757;28;20125;-59
2021/01/24 11:08:24;;;;;;;0.80;0.32;;;;;;;;;;4955104;28;21237;-59
2021/01/24 11:10:55;;;;;;;0.60;0.30;;;;;;;;;;4946132;28;20325;-59
2021/01/24 11:13:23;;;;;;;2.35;0.57;;;;;;;;;;4979461;28;20044;-60
2021/01/24 11:15:48;;;;;;;0.80;0.35;;;;;;;;;;4976143;28;20034;-60
2021/01/24 11:18:17;;;;;;;1.48;0.70;;;;;;;;;;4973956;28;20029;-60
2021/01/24 11:20:42;;;;;;;2.13;0.30;;;;;;;;;;4971741;28;20750;-60
2021/01/24 11:23:11;;;;;;;1.23;0.52;;;;;;;;;;4966732;28;20084;-59
2021/01/24 11:25:37;;;;;;;1.80;0.65;;;;;;;;;;4975841;28;20540;-61
2021/01/24 11:28:05;;;;;;;2.28;0.60;;;;;;;;;;4982130;28;20049;-60
2021/01/24 11:30:30;;;;;;;0.80;0.60;;;;;;;;;;4987002;28;20049;-60
2021/01/24 11:32:56;;;;;;;3.03;0.73;;;;;;;;;;4986627;28;20061;-59
2021/01/24 11:35:24;;;;;;;3.10;0.47;;;;;;;;;;4984778;28;20627;-59
2021/01/24 11:37:54;;;;;;;3.42;0.50;;;;;;;;;;4983742;28;21847;-61
2021/01/24 11:40:20;;;;;;;1.13;0.30;;;;;;;;;;4981331;28;20026;-61
2021/01/24 11:42:47;;;;;;;0.47;0.38;;;;;;;;;;4967797;28;20554;-60
2021/01/24 11:45:13;;;;;;;1.17;0.45;;;;;;;;;;4965683;28;20398;-62
2021/01/24 11:47:43;;;;;;;2.92;0.57;;;;;;;;;;4976869;28;20301;-61
2021/01/24 11:50:12;;;;;;;1.25;0.40;;;;;;;;;;4976046;28;20080;-61
2021/01/24 11:52:40;;;;;;;1.17;0.47;;;;;;;;;;4982024;28;20034;-62
2021/01/24 11:55:08;;;;;;;0.95;0.45;;;;;;;;;;4952199;28;20033;-62
2021/01/24 11:57:36;;;;;;;1.55;0.35;;;;;;;;;;4968891;28;20157;-61
2021/01/24 12:00:05;;;;;;;0.57;0.20;;;;;;;;;;4975800;28;20026;-63
2021/01/24 12:02:33;;;;;;;0.13;0.10;;;;;;;;;;4964312;28;20081;-62
2021/01/24 12:05:03;;;;;;;2.15;0.40;;;;;;;;;;4965836;28;20044;-61
2021/01/24 12:07:29;;;;;;;0.10;0.10;;;;;;;;;;4983138;28;20069;-63
2021/01/24 12:09:54;;;;;;;0.20;0.10;;;;;;;;;;4954949;28;20924;-63
2021/01/24 12:12:22;;;;;;;0.47;0.20;;;;;;;;;;4972015;28;20186;-63
2021/01/24 12:14:50;;;;;;;0.40;0.10;;;;;;;;;;4983261;28;20606;-63
2021/01/24 12:17:24;;;;;;;0.10;0.10;;;;;;;;;;4981696;28;20037;-62
2021/01/24 12:19:54;;;;;;;0.43;0.08;;;;;;;;;;4981509;28;20120;-63
2021/01/24 12:22:19;;;;;;;0.45;0.10;;;;;;;;;;4976678;28;20028;-63
2021/01/24 12:24:45;;;;;;;1.10;0.10;;;;;;;;;;4971922;28;20038;-62
2021/01/24 12:27:11;;;;;;;0.65;0.10;;;;;;;;;;4967994;28;20092;-63
2021/01/24 12:29:40;;;;;;;1.15;0.00;;;;;;;;;;4965585;28;20048;-65
2021/01/24 12:32:08;;;;;;;0.52;0.10;;;;;;;;;;4984614;28;20871;-64
2021/01/24 12:34:34;;;;;;;0.20;0.00;;;;;;;;;;4960812;28;20512;-64
2021/01/24 12:36:59;;;;;;;2.75;0.20;;;;;;;;;;4983900;28;20033;-64
2021/01/24 12:39:25;;;;;;;0.75;0.13;;;;;;;;;;4967567;28;20091;-65
2021/01/24 12:41:50;;;;;;;0.88;0.10;;;;;;;;;;4978061;28;20724;-64
2021/01/24 12:44:15;;;;;;;0.43;0.25;;;;;;;;;;4958286;28;20073;-65
2021/01/24 12:46:41;;;;;;;1.17;0.70;;;;;;;;;;4983426;28;20125;-64
2021/01/24 12:49:06;;;;;;;0.63;0.10;;;;;;;;;;4977697;28;20545;-64
2021/01/24 12:51:49;;;;;;;0.40;0.28;;;;;;;;;;4970733;28;20520;-64
2021/01/24 12:54:20;;;;;;;0.45;0.30;;;;;;;;;;4983643;28;20143;-64
2021/01/24 12:56:45;;;;;;;2.20;0.20;;;;;;;;;;4986756;28;20104;-64
2021/01/24 12:59:11;;;;;;;2.60;0.30;;;;;;;;;;4966526;28;20025;-66
2021/01/24 13:01:36;;;;;;;0.52;0.13;;;;;;;;;;4964744;28;21014;-66
2021/01/24 13:04:02;;;;;;;0.30;0.30;;;;;;;;;;4982392;28;20040;-65
2021/01/24 13:06:29;;;;;;;3.08;0.10;;;;;;;;;;4976349;28;20037;-65
2021/01/24 13:08:55;;;;;;;1.90;0.20;;;;;;;;;;4985426;28;20060;-65
2021/01/24 13:11:22;;;;;;;0.20;0.10;;;;;;;;;;4986147;28;20140;-66
2021/01/24 13:13:49;;;;;;;1.55;0.30;;;;;;;;;;4988790;28;20045;-65
2021/01/24 13:16:14;;;;;;;2.65;0.32;;;;;;;;;;4984759;28;20034;-66
2021/01/24 13:18:40;;;;;;;3.20;0.40;;;;;;;;;;4982433;28;20037;-65
2021/01/24 13:21:06;;;;;;;1.15;0.30;;;;;;;;;;4966183;28;20084;-65
2021/01/24 13:23:32;;;;;;;2.17;0.25;;;;;;;;;;4987233;28;20548;-65
2021/01/24 13:25:57;;;;;;;1.67;0.35;;;;;;;;;;4977466;28;21792;-65
2021/01/24 13:28:27;;;;;;;1.63;0.40;;;;;;;;;;4985401;28;20049;-65
2021/01/24 13:30:58;;;;;;;1.13;0.77;;;;;;;;;;4986425;28;21594;-64
2021/01/24 13:33:24;;;;;;;1.75;0.38;;;;;;;;;;4980725;28;20041;-65
2021/01/24 13:35:57;;;;;;;2.80;0.40;;;;;;;;;;4987338;28;20583;-65
2021/01/24 13:38:28;;;;;;;2.20;0.35;;;;;;;;;;4986607;28;20176;-66
2021/01/24 13:40:56;;;;;;;2.22;0.32;;;;;;;;;;4988357;28;20152;-66
2021/01/24 13:43:22;;;;;;;0.85;0.30;;;;;;;;;;4982995;28;20169;-66
2021/01/24 13:45:48;;;;;;;0.95;0.55;;;;;;;;;;4977683;28;20474;-65
2021/01/24 13:48:14;;;;;;;0.68;0.25;;;;;;;;;;4985816;28;20152;-68
2021/01/24 13:50:44;;;;;;;0.28;0.22;;;;;;;;;;4968152;28;20260;-67
2021/01/24 13:53:10;;;;;;;2.05;0.57;;;;;;;;;;4984967;28;20029;-66
2021/01/24 13:55:38;;;;;;;0.30;0.30;;;;;;;;;;4988448;28;20040;-65
2021/01/24 13:58:03;;;;;;;4.47;0.63;;;;;;;;;;4960668;28;20097;-65
2021/01/24 14:00:31;;;;;;;1.75;0.38;;;;;;;;;;4970774;28;20468;-67
2021/01/24 14:02:57;;;;;;;1.13;0.70;;;;;;;;;;4987331;28;20063;-65
2021/01/24 14:05:25;;;;;;;1.80;0.95;;;;;;;;;;4988692;28;20063;-66
2021/01/24 14:07:52;;;;;;;5.55;1.30;;;;;;;;;;4982660;28;20042;-66
2021/01/24 14:10:20;;;;;;;0.60;0.47;;;;;;;;;;4981938;28;20609;-66
2021/01/24 14:12:46;;;;;;;0.95;0.40;;;;;;;;;;4977738;28;20044;-66
2021/01/24 14:15:16;;;;;;;0.45;0.40;;;;;;;;;;4983716;28;20030;-67
2021/01/24 14:17:43;;;;;;;4.07;0.63;;;;;;;;;;4986041;28;20692;-66
2021/01/24 14:20:08;;;;;;;2.63;0.60;;;;;;;;;;4978060;28;20382;-65
2021/01/24 14:22:34;;;;;;;2.25;0.70;;;;;;;;;;4965726;28;20061;-66
2021/01/24 14:25:03;;;;;;;3.67;1.33;;;;;;;;;;4984009;28;20034;-65
2021/01/24 14:27:28;;;;;;;2.45;0.80;;;;;;;;;;4984072;28;20064;-67
2021/01/24 14:29:54;;;;;;;1.20;0.30;;;;;;;;;;4984490;28;20042;-65
2021/01/24 14:32:24;;;;;;;1.60;0.50;;;;;;;;;;4967221;28;20502;-66
2021/01/24 14:34:50;;;;;;;2.00;0.40;;;;;;;;;;4982295;28;20042;-65
2021/01/24 14:37:16;;;;;;;1.00;0.38;;;;;;;;;;4967153;28;21791;-65
2021/01/24 14:39:42;;;;;;;3.80;0.47;;;;;;;;;;4983998;28;20563;-65
2021/01/24 14:42:08;;;;;;;3.83;0.63;;;;;;;;;;4985446;23;20054;-82
2021/01/24 14:44:35;;;;;;;0.15;0.15;;;;;;;;;;4964858;28;20391;-81
2021/01/24 14:47:01;;;;;;;1.23;0.30;;;;;;;;;;4970175;28;20018;-83
2021/01/24 14:49:28;;;;;;;0.63;0.25;;;;;;;;;;4950664;28;20035;-85
2021/01/24 14:51:57;;;;;;;0.50;0.15;;;;;;;;;;4968524;28;20026;-83
2021/01/24 14:54:22;;;;;;;0.25;0.10;;;;;;;;;;4970978;28;20019;-82